sensor_id;sensor_type;location;lat;lon;timestamp;P1;durP1;ratioP1;P2;durP2;ratioP2
11004;SDS011;5555;59.622;16.556;2023-12-20T00:00:58;14.90;;;3.27;;
11004;SDS011;5555;59.622;16.556;2023-12-20T00:03:23;10.47;;;3.50;;
11004;SDS011;5555;59.622;16.556;2023-12-20T00:05:49;16.40;;;3.83;;
11004;SDS011;5555;59.622;16.556;2023-12-20T00:08:15;15.33;;;3.20;;
11004;SDS011;5555;59.622;16.556;2023-12-20T00:10:41;13.40;;;2.90;;
11004;SDS011;5555;59.622;16.556;2023-12-20T00:13:07;13.20;;;3.27;;
11004;SDS011;5555;59.622;16.556;2023-12-20T00:15:34;16.10;;;3.43;;
11004;SDS011;5555;59.622;16.556;2023-12-20T00:18:00;14.63;;;3.23;;
11004;SDS011;5555;59.622;16.556;2023-12-20T00:20:26;14.00;;;3.37;;
11004;SDS011;5555;59.622;16.556;2023-12-20T00:22:52;15.10;;;3.23;;
11004;SDS011;5555;59.622;16.556;2023-12-20T00:25:18;15.27;;;3.33;;
11004;SDS011;5555;59.622;16.556;2023-12-20T00:27:44;14.00;;;3.40;;
11004;SDS011;5555;59.622;16.556;2023-12-20T00:30:10;17.87;;;3.60;;
11004;SDS011;5555;59.622;16.556;2023-12-20T00:32:36;21.77;;;3.77;;
11004;SDS011;5555;59.622;16.556;2023-12-20T00:35:02;15.73;;;3.00;;
11004;SDS011;5555;59.622;16.556;2023-12-20T00:37:27;17.67;;;3.63;;
11004;SDS011;5555;59.622;16.556;2023-12-20T00:39:53;13.23;;;3.50;;
11004;SDS011;5555;59.622;16.556;2023-12-20T00:42:18;19.97;;;3.40;;
11004;SDS011;5555;59.622;16.556;2023-12-20T00:44:44;16.83;;;3.20;;
11004;SDS011;5555;59.622;16.556;2023-12-20T00:47:10;18.73;;;3.47;;
11004;SDS011;5555;59.622;16.556;2023-12-20T00:49:35;13.10;;;3.60;;
11004;SDS011;5555;59.622;16.556;2023-12-20T00:52:01;14.53;;;3.37;;
11004;SDS011;5555;59.622;16.556;2023-12-20T00:54:26;13.53;;;3.20;;
11004;SDS011;5555;59.622;16.556;2023-12-20T00:56:52;14.47;;;3.63;;
11004;SDS011;5555;59.622;16.556;2023-12-20T00:59:18;15.30;;;3.20;;
11004;SDS011;5555;59.622;16.556;2023-12-20T01:01:44;15.17;;;3.37;;
11004;SDS011;5555;59.622;16.556;2023-12-20T01:04:10;13.80;;;3.80;;
11004;SDS011;5555;59.622;16.556;2023-12-20T01:06:35;20.27;;;3.97;;
11004;SDS011;5555;59.622;16.556;2023-12-20T01:09:01;15.27;;;3.30;;
11004;SDS011;5555;59.622;16.556;2023-12-20T01:11:27;14.37;;;3.13;;
11004;SDS011;5555;59.622;16.556;2023-12-20T01:13:53;12.47;;;2.90;;
11004;SDS011;5555;59.622;16.556;2023-12-20T01:16:18;24.90;;;4.00;;
11004;SDS011;5555;59.622;16.556;2023-12-20T01:18:44;18.47;;;4.17;;
11004;SDS011;5555;59.622;16.556;2023-12-20T01:21:10;14.60;;;2.93;;
11004;SDS011;5555;59.622;16.556;2023-12-20T01:23:35;12.77;;;3.67;;
11004;SDS011;5555;59.622;16.556;2023-12-20T01:26:01;14.77;;;3.70;;
11004;SDS011;5555;59.622;16.556;2023-12-20T01:28:27;20.90;;;4.03;;
11004;SDS011;5555;59.622;16.556;2023-12-20T01:30:53;16.97;;;3.80;;
11004;SDS011;5555;59.622;16.556;2023-12-20T01:33:19;20.00;;;3.83;;
11004;SDS011;5555;59.622;16.556;2023-12-20T01:35:44;19.00;;;3.33;;
11004;SDS011;5555;59.622;16.556;2023-12-20T01:38:10;15.83;;;3.93;;
11004;SDS011;5555;59.622;16.556;2023-12-20T01:40:35;14.43;;;3.47;;
11004;SDS011;5555;59.622;16.556;2023-12-20T01:43:08;15.33;;;4.00;;
11004;SDS011;5555;59.622;16.556;2023-12-20T01:45:34;19.13;;;4.37;;
11004;SDS011;5555;59.622;16.556;2023-12-20T01:48:00;21.93;;;4.40;;
11004;SDS011;5555;59.622;16.556;2023-12-20T01:50:28;17.77;;;4.80;;
11004;SDS011;5555;59.622;16.556;2023-12-20T01:52:54;21.57;;;4.27;;
11004;SDS011;5555;59.622;16.556;2023-12-20T01:55:22;14.87;;;3.90;;
11004;SDS011;5555;59.622;16.556;2023-12-20T01:57:49;18.33;;;4.07;;
11004;SDS011;5555;59.622;16.556;2023-12-20T02:00:16;24.60;;;4.63;;
11004;SDS011;5555;59.622;16.556;2023-12-20T02:02:42;18.17;;;4.33;;
11004;SDS011;5555;59.622;16.556;2023-12-20T02:05:09;26.83;;;5.23;;
11004;SDS011;5555;59.622;16.556;2023-12-20T02:07:35;19.20;;;4.30;;
11004;SDS011;5555;59.622;16.556;2023-12-20T02:10:01;17.07;;;3.77;;
11004;SDS011;5555;59.622;16.556;2023-12-20T02:12:29;13.77;;;3.73;;
11004;SDS011;5555;59.622;16.556;2023-12-20T02:14:55;12.80;;;3.40;;
11004;SDS011;5555;59.622;16.556;2023-12-20T02:17:20;21.07;;;4.57;;
11004;SDS011;5555;59.622;16.556;2023-12-20T02:19:47;22.57;;;4.50;;
11004;SDS011;5555;59.622;16.556;2023-12-20T02:22:12;22.30;;;4.47;;
11004;SDS011;5555;59.622;16.556;2023-12-20T02:24:38;19.80;;;4.53;;
11004;SDS011;5555;59.622;16.556;2023-12-20T02:27:07;22.07;;;4.60;;
11004;SDS011;5555;59.622;16.556;2023-12-20T02:29:34;21.07;;;4.93;;
11004;SDS011;5555;59.622;16.556;2023-12-20T02:32:00;17.00;;;4.27;;
11004;SDS011;5555;59.622;16.556;2023-12-20T02:34:26;15.50;;;4.30;;
11004;SDS011;5555;59.622;16.556;2023-12-20T02:36:51;23.40;;;4.87;;
11004;SDS011;5555;59.622;16.556;2023-12-20T02:39:17;18.47;;;4.87;;
11004;SDS011;5555;59.622;16.556;2023-12-20T02:41:44;14.60;;;4.27;;
11004;SDS011;5555;59.622;16.556;2023-12-20T02:44:09;20.93;;;4.73;;
11004;SDS011;5555;59.622;16.556;2023-12-20T02:46:35;23.97;;;5.10;;
11004;SDS011;5555;59.622;16.556;2023-12-20T02:49:01;25.70;;;4.90;;
11004;SDS011;5555;59.622;16.556;2023-12-20T02:51:26;24.43;;;5.77;;
11004;SDS011;5555;59.622;16.556;2023-12-20T02:53:52;24.37;;;5.43;;
11004;SDS011;5555;59.622;16.556;2023-12-20T02:56:19;28.93;;;5.70;;
11004;SDS011;5555;59.622;16.556;2023-12-20T02:58:44;34.50;;;5.60;;
11004;SDS011;5555;59.622;16.556;2023-12-20T03:01:10;33.47;;;7.10;;
11004;SDS011;5555;59.622;16.556;2023-12-20T03:03:36;25.87;;;6.70;;
11004;SDS011;5555;59.622;16.556;2023-12-20T03:06:01;29.17;;;7.37;;
11004;SDS011;5555;59.622;16.556;2023-12-20T03:08:27;27.90;;;6.40;;
11004;SDS011;5555;59.622;16.556;2023-12-20T03:10:52;34.77;;;7.37;;
11004;SDS011;5555;59.622;16.556;2023-12-20T03:13:18;26.07;;;7.03;;
11004;SDS011;5555;59.622;16.556;2023-12-20T03:15:45;37.47;;;7.07;;
11004;SDS011;5555;59.622;16.556;2023-12-20T03:18:10;49.70;;;7.80;;
11004;SDS011;5555;59.622;16.556;2023-12-20T03:20:36;31.43;;;7.47;;
11004;SDS011;5555;59.622;16.556;2023-12-20T03:23:02;57.73;;;8.93;;
11004;SDS011;5555;59.622;16.556;2023-12-20T03:25:28;29.20;;;8.13;;
11004;SDS011;5555;59.622;16.556;2023-12-20T03:27:53;48.53;;;10.13;;
11004;SDS011;5555;59.622;16.556;2023-12-20T03:30:19;54.03;;;8.90;;
11004;SDS011;5555;59.622;16.556;2023-12-20T03:32:45;59.90;;;9.13;;
11004;SDS011;5555;59.622;16.556;2023-12-20T03:35:11;37.00;;;7.37;;
11004;SDS011;5555;59.622;16.556;2023-12-20T03:37:37;96.43;;;10.83;;
11004;SDS011;5555;59.622;16.556;2023-12-20T03:40:03;48.90;;;7.20;;
11004;SDS011;5555;59.622;16.556;2023-12-20T03:42:29;63.17;;;8.90;;
11004;SDS011;5555;59.622;16.556;2023-12-20T03:44:54;48.27;;;8.80;;
11004;SDS011;5555;59.622;16.556;2023-12-20T03:47:20;39.83;;;7.73;;
11004;SDS011;5555;59.622;16.556;2023-12-20T03:49:45;30.77;;;6.77;;
11004;SDS011;5555;59.622;16.556;2023-12-20T03:52:11;67.33;;;8.60;;
11004;SDS011;5555;59.622;16.556;2023-12-20T03:54:37;21.43;;;6.27;;
11004;SDS011;5555;59.622;16.556;2023-12-20T03:57:03;53.33;;;7.87;;
11004;SDS011;5555;59.622;16.556;2023-12-20T03:59:29;55.07;;;8.60;;
11004;SDS011;5555;59.622;16.556;2023-12-20T04:01:59;42.07;;;7.07;;
11004;SDS011;5555;59.622;16.556;2023-12-20T04:04:25;30.70;;;5.80;;
11004;SDS011;5555;59.622;16.556;2023-12-20T04:06:50;42.53;;;6.43;;
11004;SDS011;5555;59.622;16.556;2023-12-20T04:09:16;21.63;;;5.13;;
11004;SDS011;5555;59.622;16.556;2023-12-20T04:11:41;44.60;;;5.87;;
11004;SDS011;5555;59.622;16.556;2023-12-20T04:14:07;56.40;;;7.10;;
11004;SDS011;5555;59.622;16.556;2023-12-20T04:16:33;33.57;;;5.97;;
11004;SDS011;5555;59.622;16.556;2023-12-20T04:18:58;52.10;;;9.30;;
11004;SDS011;5555;59.622;16.556;2023-12-20T04:21:24;38.87;;;6.63;;
11004;SDS011;5555;59.622;16.556;2023-12-20T04:23:49;39.93;;;6.07;;
11004;SDS011;5555;59.622;16.556;2023-12-20T04:26:15;33.30;;;5.80;;
11004;SDS011;5555;59.622;16.556;2023-12-20T04:28:40;35.13;;;5.83;;
11004;SDS011;5555;59.622;16.556;2023-12-20T04:31:07;30.20;;;6.03;;
11004;SDS011;5555;59.622;16.556;2023-12-20T04:33:32;27.07;;;7.00;;
11004;SDS011;5555;59.622;16.556;2023-12-20T04:35:58;40.93;;;7.00;;
11004;SDS011;5555;59.622;16.556;2023-12-20T04:38:25;17.73;;;6.13;;
11004;SDS011;5555;59.622;16.556;2023-12-20T04:40:50;25.00;;;5.50;;
11004;SDS011;5555;59.622;16.556;2023-12-20T04:43:16;23.10;;;6.20;;
11004;SDS011;5555;59.622;16.556;2023-12-20T04:45:42;21.83;;;6.73;;
11004;SDS011;5555;59.622;16.556;2023-12-20T04:48:07;32.50;;;5.90;;
11004;SDS011;5555;59.622;16.556;2023-12-20T04:50:33;23.47;;;6.03;;
11004;SDS011;5555;59.622;16.556;2023-12-20T04:52:59;48.13;;;8.57;;
11004;SDS011;5555;59.622;16.556;2023-12-20T04:55:24;25.83;;;5.77;;
11004;SDS011;5555;59.622;16.556;2023-12-20T04:57:50;16.57;;;6.03;;
11004;SDS011;5555;59.622;16.556;2023-12-20T05:00:15;33.90;;;8.00;;
11004;SDS011;5555;59.622;16.556;2023-12-20T05:02:41;44.00;;;8.27;;
11004;SDS011;5555;59.622;16.556;2023-12-20T05:05:07;50.37;;;10.50;;
11004;SDS011;5555;59.622;16.556;2023-12-20T05:07:33;79.93;;;13.80;;
11004;SDS011;5555;59.622;16.556;2023-12-20T05:09:59;92.47;;;16.93;;
11004;SDS011;5555;59.622;16.556;2023-12-20T05:12:24;64.57;;;13.83;;
11004;SDS011;5555;59.622;16.556;2023-12-20T05:14:51;45.63;;;9.47;;
11004;SDS011;5555;59.622;16.556;2023-12-20T05:17:17;132.47;;;18.37;;
11004;SDS011;5555;59.622;16.556;2023-12-20T05:19:42;22.80;;;6.53;;
11004;SDS011;5555;59.622;16.556;2023-12-20T05:22:08;26.77;;;8.50;;
11004;SDS011;5555;59.622;16.556;2023-12-20T05:24:34;37.33;;;8.57;;
11004;SDS011;5555;59.622;16.556;2023-12-20T05:27:00;132.00;;;18.10;;
11004;SDS011;5555;59.622;16.556;2023-12-20T05:29:26;272.33;;;28.83;;
11004;SDS011;5555;59.622;16.556;2023-12-20T05:31:51;102.33;;;18.03;;
11004;SDS011;5555;59.622;16.556;2023-12-20T05:34:17;160.97;;;23.63;;
11004;SDS011;5555;59.622;16.556;2023-12-20T05:36:42;166.47;;;21.77;;
11004;SDS011;5555;59.622;16.556;2023-12-20T05:39:08;37.20;;;12.70;;
11004;SDS011;5555;59.622;16.556;2023-12-20T05:41:33;382.17;;;39.00;;
11004;SDS011;5555;59.622;16.556;2023-12-20T05:43:59;40.47;;;13.17;;
11004;SDS011;5555;59.622;16.556;2023-12-20T05:46:25;43.70;;;14.13;;
11004;SDS011;5555;59.622;16.556;2023-12-20T05:48:51;41.07;;;11.90;;
11004;SDS011;5555;59.622;16.556;2023-12-20T05:51:17;45.27;;;14.40;;
11004;SDS011;5555;59.622;16.556;2023-12-20T05:53:43;44.57;;;13.33;;
11004;SDS011;5555;59.622;16.556;2023-12-20T05:56:09;38.60;;;11.60;;
11004;SDS011;5555;59.622;16.556;2023-12-20T05:58:35;39.93;;;12.33;;
11004;SDS011;5555;59.622;16.556;2023-12-20T06:01:04;31.27;;;10.30;;
11004;SDS011;5555;59.622;16.556;2023-12-20T06:03:30;27.53;;;8.07;;
11004;SDS011;5555;59.622;16.556;2023-12-20T06:05:56;25.13;;;7.90;;
11004;SDS011;5555;59.622;16.556;2023-12-20T06:08:21;18.93;;;6.73;;
11004;SDS011;5555;59.622;16.556;2023-12-20T06:10:47;30.60;;;7.17;;
11004;SDS011;5555;59.622;16.556;2023-12-20T06:13:13;44.67;;;6.97;;
11004;SDS011;5555;59.622;16.556;2023-12-20T06:15:39;173.90;;;20.53;;
11004;SDS011;5555;59.622;16.556;2023-12-20T06:18:05;72.17;;;12.07;;
11004;SDS011;5555;59.622;16.556;2023-12-20T06:20:31;96.83;;;14.47;;
11004;SDS011;5555;59.622;16.556;2023-12-20T06:22:58;86.53;;;11.27;;
11004;SDS011;5555;59.622;16.556;2023-12-20T06:25:23;30.40;;;7.27;;
11004;SDS011;5555;59.622;16.556;2023-12-20T06:27:49;54.50;;;9.27;;
11004;SDS011;5555;59.622;16.556;2023-12-20T06:30:15;217.60;;;22.27;;
11004;SDS011;5555;59.622;16.556;2023-12-20T06:32:41;200.03;;;20.77;;
11004;SDS011;5555;59.622;16.556;2023-12-20T06:35:08;49.23;;;9.63;;
11004;SDS011;5555;59.622;16.556;2023-12-20T06:37:34;189.60;;;23.20;;
11004;SDS011;5555;59.622;16.556;2023-12-20T06:40:00;79.83;;;13.53;;
11004;SDS011;5555;59.622;16.556;2023-12-20T06:42:26;91.70;;;16.23;;
11004;SDS011;5555;59.622;16.556;2023-12-20T06:44:52;74.67;;;15.90;;
11004;SDS011;5555;59.622;16.556;2023-12-20T06:47:18;29.70;;;10.10;;
11004;SDS011;5555;59.622;16.556;2023-12-20T06:49:43;38.50;;;11.03;;
11004;SDS011;5555;59.622;16.556;2023-12-20T06:52:09;34.60;;;11.07;;
11004;SDS011;5555;59.622;16.556;2023-12-20T06:54:35;37.63;;;10.90;;
11004;SDS011;5555;59.622;16.556;2023-12-20T06:57:01;38.20;;;12.40;;
11004;SDS011;5555;59.622;16.556;2023-12-20T06:59:28;34.03;;;9.97;;
11004;SDS011;5555;59.622;16.556;2023-12-20T07:01:54;28.77;;;10.20;;
11004;SDS011;5555;59.622;16.556;2023-12-20T07:04:19;24.77;;;8.70;;
11004;SDS011;5555;59.622;16.556;2023-12-20T07:06:47;25.13;;;9.13;;
11004;SDS011;5555;59.622;16.556;2023-12-20T07:09:13;22.10;;;8.57;;
11004;SDS011;5555;59.622;16.556;2023-12-20T07:11:39;23.70;;;8.33;;
11004;SDS011;5555;59.622;16.556;2023-12-20T07:14:05;23.77;;;8.67;;
11004;SDS011;5555;59.622;16.556;2023-12-20T07:16:30;32.73;;;9.10;;
11004;SDS011;5555;59.622;16.556;2023-12-20T07:18:56;28.90;;;8.87;;
11004;SDS011;5555;59.622;16.556;2023-12-20T07:21:22;23.10;;;9.10;;
11004;SDS011;5555;59.622;16.556;2023-12-20T07:23:48;25.23;;;9.87;;
11004;SDS011;5555;59.622;16.556;2023-12-20T07:26:14;18.97;;;8.63;;
11004;SDS011;5555;59.622;16.556;2023-12-20T07:28:40;21.73;;;8.37;;
11004;SDS011;5555;59.622;16.556;2023-12-20T07:31:05;20.70;;;8.50;;
11004;SDS011;5555;59.622;16.556;2023-12-20T07:33:31;16.37;;;8.20;;
11004;SDS011;5555;59.622;16.556;2023-12-20T07:35:57;17.17;;;8.50;;
11004;SDS011;5555;59.622;16.556;2023-12-20T07:38:24;18.97;;;8.20;;
11004;SDS011;5555;59.622;16.556;2023-12-20T07:40:49;21.97;;;9.73;;
11004;SDS011;5555;59.622;16.556;2023-12-20T07:43:15;15.47;;;8.33;;
11004;SDS011;5555;59.622;16.556;2023-12-20T07:45:40;15.50;;;7.67;;
11004;SDS011;5555;59.622;16.556;2023-12-20T07:48:06;19.83;;;6.83;;
11004;SDS011;5555;59.622;16.556;2023-12-20T07:50:32;20.60;;;7.40;;
11004;SDS011;5555;59.622;16.556;2023-12-20T07:52:58;17.33;;;7.03;;
11004;SDS011;5555;59.622;16.556;2023-12-20T07:55:25;19.90;;;7.10;;
11004;SDS011;5555;59.622;16.556;2023-12-20T07:57:51;17.40;;;6.83;;
11004;SDS011;5555;59.622;16.556;2023-12-20T08:00:17;18.47;;;5.97;;
11004;SDS011;5555;59.622;16.556;2023-12-20T08:02:44;16.37;;;6.03;;
11004;SDS011;5555;59.622;16.556;2023-12-20T08:05:09;14.30;;;5.20;;
11004;SDS011;5555;59.622;16.556;2023-12-20T08:07:35;18.33;;;5.70;;
11004;SDS011;5555;59.622;16.556;2023-12-20T08:10:01;16.20;;;5.03;;
11004;SDS011;5555;59.622;16.556;2023-12-20T08:12:27;15.50;;;5.50;;
11004;SDS011;5555;59.622;16.556;2023-12-20T08:14:53;12.73;;;4.73;;
11004;SDS011;5555;59.622;16.556;2023-12-20T08:17:19;21.17;;;5.27;;
11004;SDS011;5555;59.622;16.556;2023-12-20T08:19:44;18.77;;;5.37;;
11004;SDS011;5555;59.622;16.556;2023-12-20T08:22:10;16.07;;;4.50;;
11004;SDS011;5555;59.622;16.556;2023-12-20T08:24:36;15.20;;;4.67;;
11004;SDS011;5555;59.622;16.556;2023-12-20T08:27:03;19.47;;;5.03;;
11004;SDS011;5555;59.622;16.556;2023-12-20T08:29:29;19.50;;;5.40;;
11004;SDS011;5555;59.622;16.556;2023-12-20T08:31:54;13.73;;;4.17;;
11004;SDS011;5555;59.622;16.556;2023-12-20T08:34:20;16.40;;;4.67;;
11004;SDS011;5555;59.622;16.556;2023-12-20T08:36:46;19.73;;;4.90;;
11004;SDS011;5555;59.622;16.556;2023-12-20T08:39:12;17.73;;;5.07;;
11004;SDS011;5555;59.622;16.556;2023-12-20T08:41:37;14.83;;;4.50;;
11004;SDS011;5555;59.622;16.556;2023-12-20T08:44:03;16.23;;;4.77;;
11004;SDS011;5555;59.622;16.556;2023-12-20T08:46:29;19.20;;;5.30;;
11004;SDS011;5555;59.622;16.556;2023-12-20T08:48:55;19.87;;;5.10;;
11004;SDS011;5555;59.622;16.556;2023-12-20T08:51:21;19.47;;;5.10;;
11004;SDS011;5555;59.622;16.556;2023-12-20T08:53:48;14.37;;;4.63;;
11004;SDS011;5555;59.622;16.556;2023-12-20T08:56:15;20.97;;;5.40;;
11004;SDS011;5555;59.622;16.556;2023-12-20T08:58:41;18.63;;;5.70;;
11004;SDS011;5555;59.622;16.556;2023-12-20T09:01:07;20.73;;;5.07;;
11004;SDS011;5555;59.622;16.556;2023-12-20T09:03:32;18.77;;;4.83;;
11004;SDS011;5555;59.622;16.556;2023-12-20T09:05:58;16.03;;;4.77;;
11004;SDS011;5555;59.622;16.556;2023-12-20T09:08:24;11.30;;;4.40;;
11004;SDS011;5555;59.622;16.556;2023-12-20T09:10:49;20.83;;;4.60;;
11004;SDS011;5555;59.622;16.556;2023-12-20T09:13:15;13.20;;;4.40;;
11004;SDS011;5555;59.622;16.556;2023-12-20T09:15:41;14.87;;;4.90;;
11004;SDS011;5555;59.622;16.556;2023-12-20T09:18:06;14.70;;;4.80;;
11004;SDS011;5555;59.622;16.556;2023-12-20T09:20:33;15.30;;;4.97;;
11004;SDS011;5555;59.622;16.556;2023-12-20T09:22:59;12.33;;;4.87;;
11004;SDS011;5555;59.622;16.556;2023-12-20T09:25:25;6.67;;;4.20;;
11004;SDS011;5555;59.622;16.556;2023-12-20T09:27:51;7.50;;;3.63;;
11004;SDS011;5555;59.622;16.556;2023-12-20T09:30:17;8.33;;;3.73;;
11004;SDS011;5555;59.622;16.556;2023-12-20T09:32:43;10.50;;;4.10;;
11004;SDS011;5555;59.622;16.556;2023-12-20T09:35:10;9.67;;;3.50;;
11004;SDS011;5555;59.622;16.556;2023-12-20T09:37:36;7.97;;;3.77;;
11004;SDS011;5555;59.622;16.556;2023-12-20T09:40:01;7.90;;;3.63;;
11004;SDS011;5555;59.622;16.556;2023-12-20T09:42:38;7.33;;;3.40;;
11004;SDS011;5555;59.622;16.556;2023-12-20T09:45:12;11.63;;;4.57;;
11004;SDS011;5555;59.622;16.556;2023-12-20T09:47:39;8.70;;;4.70;;
11004;SDS011;5555;59.622;16.556;2023-12-20T09:50:06;11.20;;;4.60;;
11004;SDS011;5555;59.622;16.556;2023-12-20T09:52:33;10.47;;;4.60;;
11004;SDS011;5555;59.622;16.556;2023-12-20T09:55:01;9.57;;;5.07;;
11004;SDS011;5555;59.622;16.556;2023-12-20T09:57:29;15.47;;;5.33;;
11004;SDS011;5555;59.622;16.556;2023-12-20T09:59:55;8.20;;;4.23;;
11004;SDS011;5555;59.622;16.556;2023-12-20T10:02:21;13.30;;;5.57;;
11004;SDS011;5555;59.622;16.556;2023-12-20T10:04:52;14.73;;;4.80;;
11004;SDS011;5555;59.622;16.556;2023-12-20T10:07:17;14.53;;;5.50;;
11004;SDS011;5555;59.622;16.556;2023-12-20T10:09:43;11.57;;;5.60;;
11004;SDS011;5555;59.622;16.556;2023-12-20T10:12:09;10.47;;;5.50;;
11004;SDS011;5555;59.622;16.556;2023-12-20T10:14:35;11.13;;;5.27;;
11004;SDS011;5555;59.622;16.556;2023-12-20T10:17:04;10.07;;;5.63;;
11004;SDS011;5555;59.622;16.556;2023-12-20T10:19:30;9.57;;;4.30;;
11004;SDS011;5555;59.622;16.556;2023-12-20T10:22:00;6.77;;;3.50;;
11004;SDS011;5555;59.622;16.556;2023-12-20T10:24:28;11.13;;;4.27;;
11004;SDS011;5555;59.622;16.556;2023-12-20T10:27:07;11.47;;;4.70;;
11004;SDS011;5555;59.622;16.556;2023-12-20T10:29:33;7.80;;;4.90;;
11004;SDS011;5555;59.622;16.556;2023-12-20T10:32:22;7.13;;;4.00;;
11004;SDS011;5555;59.622;16.556;2023-12-20T10:34:48;6.87;;;4.10;;
11004;SDS011;5555;59.622;16.556;2023-12-20T10:37:15;10.00;;;5.20;;
11004;SDS011;5555;59.622;16.556;2023-12-20T10:39:41;8.87;;;4.33;;
11004;SDS011;5555;59.622;16.556;2023-12-20T10:42:08;10.27;;;4.40;;
11004;SDS011;5555;59.622;16.556;2023-12-20T10:44:36;6.53;;;4.37;;
11004;SDS011;5555;59.622;16.556;2023-12-20T10:47:02;10.63;;;4.40;;
11004;SDS011;5555;59.622;16.556;2023-12-20T10:49:29;7.07;;;4.23;;
11004;SDS011;5555;59.622;16.556;2023-12-20T10:51:55;6.83;;;3.93;;
11004;SDS011;5555;59.622;16.556;2023-12-20T10:54:24;7.03;;;3.70;;
11004;SDS011;5555;59.622;16.556;2023-12-20T10:56:50;6.77;;;3.73;;
11004;SDS011;5555;59.622;16.556;2023-12-20T10:59:18;6.67;;;4.40;;
11004;SDS011;5555;59.622;16.556;2023-12-20T11:01:45;9.50;;;4.17;;
11004;SDS011;5555;59.622;16.556;2023-12-20T11:04:27;6.10;;;3.60;;
11004;SDS011;5555;59.622;16.556;2023-12-20T11:07:01;5.73;;;3.77;;
11004;SDS011;5555;59.622;16.556;2023-12-20T11:09:44;5.57;;;3.63;;
11004;SDS011;5555;59.622;16.556;2023-12-20T11:12:23;4.30;;;3.60;;
11004;SDS011;5555;59.622;16.556;2023-12-20T11:14:57;3.73;;;3.27;;
11004;SDS011;5555;59.622;16.556;2023-12-20T11:17:28;5.40;;;3.80;;
11004;SDS011;5555;59.622;16.556;2023-12-20T11:22:22;5.53;;;4.03;;
11004;SDS011;5555;59.622;16.556;2023-12-20T11:24:50;5.40;;;3.53;;
11004;SDS011;5555;59.622;16.556;2023-12-20T11:27:17;4.17;;;3.67;;
11004;SDS011;5555;59.622;16.556;2023-12-20T11:29:50;4.03;;;3.40;;
11004;SDS011;5555;59.622;16.556;2023-12-20T11:34:56;4.93;;;3.43;;
11004;SDS011;5555;59.622;16.556;2023-12-20T11:37:30;4.03;;;2.90;;
11004;SDS011;5555;59.622;16.556;2023-12-20T11:40:06;4.77;;;3.20;;
11004;SDS011;5555;59.622;16.556;2023-12-20T11:42:44;5.67;;;3.50;;
11004;SDS011;5555;59.622;16.556;2023-12-20T11:45:14;4.80;;;2.90;;
11004;SDS011;5555;59.622;16.556;2023-12-20T11:47:47;6.47;;;3.23;;
11004;SDS011;5555;59.622;16.556;2023-12-20T11:50:14;3.80;;;3.23;;
11004;SDS011;5555;59.622;16.556;2023-12-20T11:52:43;4.27;;;2.93;;
11004;SDS011;5555;59.622;16.556;2023-12-20T11:55:09;4.43;;;2.97;;
11004;SDS011;5555;59.622;16.556;2023-12-20T11:57:35;4.07;;;2.80;;
11004;SDS011;5555;59.622;16.556;2023-12-20T12:00:02;3.53;;;2.90;;
11004;SDS011;5555;59.622;16.556;2023-12-20T12:02:28;4.90;;;2.97;;
11004;SDS011;5555;59.622;16.556;2023-12-20T12:04:54;3.17;;;2.80;;
11004;SDS011;5555;59.622;16.556;2023-12-20T12:07:21;4.43;;;2.93;;
11004;SDS011;5555;59.622;16.556;2023-12-20T12:09:47;2.80;;;2.40;;
11004;SDS011;5555;59.622;16.556;2023-12-20T12:12:13;3.53;;;2.60;;
11004;SDS011;5555;59.622;16.556;2023-12-20T12:14:39;3.10;;;2.70;;
11004;SDS011;5555;59.622;16.556;2023-12-20T12:17:11;2.83;;;1.97;;
11004;SDS011;5555;59.622;16.556;2023-12-20T12:19:40;3.40;;;2.20;;
11004;SDS011;5555;59.622;16.556;2023-12-20T12:22:10;2.63;;;2.43;;
11004;SDS011;5555;59.622;16.556;2023-12-20T12:24:39;2.17;;;1.90;;
11004;SDS011;5555;59.622;16.556;2023-12-20T12:27:06;2.17;;;1.97;;
11004;SDS011;5555;59.622;16.556;2023-12-20T12:29:32;2.43;;;1.93;;
11004;SDS011;5555;59.622;16.556;2023-12-20T12:31:59;2.33;;;1.90;;
11004;SDS011;5555;59.622;16.556;2023-12-20T12:34:27;5.17;;;2.20;;
11004;SDS011;5555;59.622;16.556;2023-12-20T12:36:53;2.33;;;2.13;;
11004;SDS011;5555;59.622;16.556;2023-12-20T12:39:19;5.00;;;2.53;;
11004;SDS011;5555;59.622;16.556;2023-12-20T12:41:45;3.83;;;2.17;;
11004;SDS011;5555;59.622;16.556;2023-12-20T12:44:10;2.53;;;2.00;;
11004;SDS011;5555;59.622;16.556;2023-12-20T12:46:36;4.37;;;2.40;;
11004;SDS011;5555;59.622;16.556;2023-12-20T12:49:01;3.13;;;2.13;;
11004;SDS011;5555;59.622;16.556;2023-12-20T12:51:27;3.37;;;2.30;;
11004;SDS011;5555;59.622;16.556;2023-12-20T12:53:53;2.90;;;1.80;;
11004;SDS011;5555;59.622;16.556;2023-12-20T12:56:18;4.20;;;1.70;;
11004;SDS011;5555;59.622;16.556;2023-12-20T12:58:44;2.43;;;1.70;;
11004;SDS011;5555;59.622;16.556;2023-12-20T13:01:10;4.93;;;1.80;;
11004;SDS011;5555;59.622;16.556;2023-12-20T13:03:36;2.27;;;1.70;;
11004;SDS011;5555;59.622;16.556;2023-12-20T13:06:02;2.90;;;1.47;;
11004;SDS011;5555;59.622;16.556;2023-12-20T13:08:28;4.20;;;1.77;;
11004;SDS011;5555;59.622;16.556;2023-12-20T13:10:54;2.77;;;1.80;;
11004;SDS011;5555;59.622;16.556;2023-12-20T13:13:22;2.87;;;1.70;;
11004;SDS011;5555;59.622;16.556;2023-12-20T13:15:47;4.03;;;1.77;;
11004;SDS011;5555;59.622;16.556;2023-12-20T13:18:17;3.60;;;1.83;;
11004;SDS011;5555;59.622;16.556;2023-12-20T13:20:44;3.67;;;2.20;;
11004;SDS011;5555;59.622;16.556;2023-12-20T13:23:09;4.47;;;2.23;;
11004;SDS011;5555;59.622;16.556;2023-12-20T13:25:35;3.10;;;2.17;;
11004;SDS011;5555;59.622;16.556;2023-12-20T13:28:01;3.43;;;2.10;;
11004;SDS011;5555;59.622;16.556;2023-12-20T13:30:27;8.77;;;2.67;;
11004;SDS011;5555;59.622;16.556;2023-12-20T13:32:53;5.33;;;2.43;;
11004;SDS011;5555;59.622;16.556;2023-12-20T13:35:19;5.10;;;2.60;;
11004;SDS011;5555;59.622;16.556;2023-12-20T13:37:45;6.70;;;2.70;;
11004;SDS011;5555;59.622;16.556;2023-12-20T13:40:11;8.83;;;3.00;;
11004;SDS011;5555;59.622;16.556;2023-12-20T13:42:37;6.30;;;3.17;;
11004;SDS011;5555;59.622;16.556;2023-12-20T13:45:06;6.47;;;3.13;;
11004;SDS011;5555;59.622;16.556;2023-12-20T13:47:32;8.27;;;3.27;;
11004;SDS011;5555;59.622;16.556;2023-12-20T13:49:58;3.90;;;3.60;;
11004;SDS011;5555;59.622;16.556;2023-12-20T13:52:24;5.17;;;3.47;;
11004;SDS011;5555;59.622;16.556;2023-12-20T13:54:49;6.97;;;4.00;;
11004;SDS011;5555;59.622;16.556;2023-12-20T13:57:15;7.23;;;4.30;;
11004;SDS011;5555;59.622;16.556;2023-12-20T13:59:40;6.60;;;4.47;;
11004;SDS011;5555;59.622;16.556;2023-12-20T14:02:06;5.07;;;4.50;;
11004;SDS011;5555;59.622;16.556;2023-12-20T14:04:32;8.27;;;5.00;;
11004;SDS011;5555;59.622;16.556;2023-12-20T14:06:58;9.17;;;5.80;;
11004;SDS011;5555;59.622;16.556;2023-12-20T14:09:23;12.80;;;5.93;;
11004;SDS011;5555;59.622;16.556;2023-12-20T14:11:49;7.27;;;5.80;;
11004;SDS011;5555;59.622;16.556;2023-12-20T14:14:15;13.13;;;5.43;;
11004;SDS011;5555;59.622;16.556;2023-12-20T14:16:40;10.13;;;6.17;;
11004;SDS011;5555;59.622;16.556;2023-12-20T14:19:09;14.80;;;7.13;;
11004;SDS011;5555;59.622;16.556;2023-12-20T14:21:34;8.60;;;6.97;;
11004;SDS011;5555;59.622;16.556;2023-12-20T14:24:00;10.03;;;7.43;;
11004;SDS011;5555;59.622;16.556;2023-12-20T14:26:26;10.33;;;7.13;;
11004;SDS011;5555;59.622;16.556;2023-12-20T14:28:53;12.17;;;7.70;;
11004;SDS011;5555;59.622;16.556;2023-12-20T14:31:19;10.67;;;7.87;;
11004;SDS011;5555;59.622;16.556;2023-12-20T14:33:44;11.37;;;8.53;;
11004;SDS011;5555;59.622;16.556;2023-12-20T14:36:11;11.33;;;8.67;;